Terminal Aerodrome Forecast
Issued by NWS Twin Cities, MN

Home | Current Version | Previous Version | Graphics & Text | Print | Product List | Glossary On
Versions: 1 2 3 4 5 6 7 8 9 10 11 12 13 14 15 16 17 18 19 20 21 22 23 24 25 26
000
FTUS43 KMPX 210800 AAB
TAFMSP
TAF AMD
KMSP 210841Z 2109/2212 15007KT P6SM VCTS BKN070CB OVC100
      TEMPO 2109/2111 4SM -SHRA BR OVC040CB
     FM211130 31009KT P6SM BKN120
     FM211500 32016G24KT P6SM SKC
     FM220100 33010KT P6SM SKC=

USA.gov is the U.S. government's official web portal to all federal, state and local government web resources and services.